sensor_id;sensor_type;location;lat;lon;timestamp;pressure;altitude;pressure_sealevel;temperature;humidity
61674;BME280;47573;43.832;5.974;2022-10-23T00:04:21;95550.53;;;24.67;66.27
61674;BME280;47573;43.832;5.974;2022-10-23T00:09:23;95548.06;;;24.65;66.18
61674;BME280;47573;43.832;5.974;2022-10-23T00:14:25;95551.06;;;24.64;66.23
61674;BME280;47573;43.832;5.974;2022-10-23T00:19:26;95546.06;;;24.61;65.96
61674;BME280;47573;43.832;5.974;2022-10-23T00:24:26;95541.66;;;24.60;66.38
61674;BME280;47573;43.832;5.974;2022-10-23T00:29:28;95539.44;;;24.57;66.36
61674;BME280;47573;43.832;5.974;2022-10-23T00:34:29;95539.44;;;24.57;66.11
61674;BME280;47573;43.832;5.974;2022-10-23T00:39:29;95538.03;;;24.54;66.08
61674;BME280;47573;43.832;5.974;2022-10-23T00:45:09;95538.28;;;24.53;66.39
61674;BME280;47573;43.832;5.974;2022-10-23T00:50:10;95534.47;;;24.54;66.30
61674;BME280;47573;43.832;5.974;2022-10-23T00:55:11;95547.53;;;24.52;66.42
61674;BME280;47573;43.832;5.974;2022-10-23T01:00:16;95551.38;;;24.51;66.19
61674;BME280;47573;43.832;5.974;2022-10-23T01:05:18;95542.59;;;24.49;65.90
61674;BME280;47573;43.832;5.974;2022-10-23T01:10:28;95545.31;;;24.49;66.36
61674;BME280;47573;43.832;5.974;2022-10-23T01:15:36;95544.75;;;24.47;66.37
61674;BME280;47573;43.832;5.974;2022-10-23T01:20:43;95551.25;;;24.46;66.24
61674;BME280;47573;43.832;5.974;2022-10-23T01:25:57;95536.56;;;24.47;66.01
61674;BME280;47573;43.832;5.974;2022-10-23T01:31:06;95522.41;;;24.50;66.25
61674;BME280;47573;43.832;5.974;2022-10-23T01:36:11;95503.81;;;24.47;66.33
61674;BME280;47573;43.832;5.974;2022-10-23T01:41:16;95508.69;;;24.45;66.17
61674;BME280;47573;43.832;5.974;2022-10-23T01:46:20;95507.28;;;24.42;66.36
61674;BME280;47573;43.832;5.974;2022-10-23T01:51:23;95496.34;;;24.42;66.12
61674;BME280;47573;43.832;5.974;2022-10-23T01:56:27;95488.16;;;24.42;66.08
61674;BME280;47573;43.832;5.974;2022-10-23T02:01:30;95476.66;;;24.40;66.01
61674;BME280;47573;43.832;5.974;2022-10-23T02:06:32;95469.31;;;24.41;66.27
61674;BME280;47573;43.832;5.974;2022-10-23T02:11:35;95474.78;;;24.41;65.91
61674;BME280;47573;43.832;5.974;2022-10-23T02:16:41;95476.94;;;24.39;66.00
61674;BME280;47573;43.832;5.974;2022-10-23T02:21:50;95465.19;;;24.38;66.40
61674;BME280;47573;43.832;5.974;2022-10-23T02:26:55;95458.88;;;24.38;66.27
61674;BME280;47573;43.832;5.974;2022-10-23T02:31:58;95457.25;;;24.37;66.19
61674;BME280;47573;43.832;5.974;2022-10-23T02:36:58;95450.63;;;24.33;66.59
61674;BME280;47573;43.832;5.974;2022-10-23T02:42:07;95451.44;;;24.33;66.34
61674;BME280;47573;43.832;5.974;2022-10-23T02:47:20;95445.66;;;24.30;66.04
61674;BME280;47573;43.832;5.974;2022-10-23T02:52:31;95448.38;;;24.30;66.12
61674;BME280;47573;43.832;5.974;2022-10-23T02:57:40;95454.91;;;24.29;66.09
61674;BME280;47573;43.832;5.974;2022-10-23T03:02:46;95447.81;;;24.28;66.49
61674;BME280;47573;43.832;5.974;2022-10-23T03:07:48;95455.41;;;24.26;66.39
61674;BME280;47573;43.832;5.974;2022-10-23T03:12:48;95460.03;;;24.25;66.54
61674;BME280;47573;43.832;5.974;2022-10-23T03:17:50;95472.25;;;24.23;66.43
61674;BME280;47573;43.832;5.974;2022-10-23T03:22:50;95464.91;;;24.23;66.16
61674;BME280;47573;43.832;5.974;2022-10-23T03:27:51;95455.91;;;24.23;66.18
61674;BME280;47573;43.832;5.974;2022-10-23T03:32:53;95450.44;;;24.23;66.17
61674;BME280;47573;43.832;5.974;2022-10-23T03:37:53;95449.84;;;24.21;66.31
61674;BME280;47573;43.832;5.974;2022-10-23T03:42:54;95452.59;;;24.21;66.03
61674;BME280;47573;43.832;5.974;2022-10-23T03:47:56;95454.75;;;24.19;66.11
61674;BME280;47573;43.832;5.974;2022-10-23T03:52:56;95465.66;;;24.19;66.12
61674;BME280;47573;43.832;5.974;2022-10-23T03:57:57;95459.88;;;24.15;66.23
61674;BME280;47573;43.832;5.974;2022-10-23T04:02:59;95468.88;;;24.16;66.35
61674;BME280;47573;43.832;5.974;2022-10-23T04:07:59;95465.59;;;24.14;66.15
61674;BME280;47573;43.832;5.974;2022-10-23T04:12:59;95487.16;;;24.15;66.04
61674;BME280;47573;43.832;5.974;2022-10-23T04:18:01;95482.53;;;24.16;66.53
61674;BME280;47573;43.832;5.974;2022-10-23T04:23:02;95474.25;;;24.11;66.73
61674;BME280;47573;43.832;5.974;2022-10-23T04:28:03;95465.00;;;24.12;66.55
61674;BME280;47573;43.832;5.974;2022-10-23T04:33:04;95461.19;;;24.13;66.49
61674;BME280;47573;43.832;5.974;2022-10-23T04:38:05;95476.38;;;24.09;66.82
61674;BME280;47573;43.832;5.974;2022-10-23T04:43:05;95469.03;;;24.09;66.65
61674;BME280;47573;43.832;5.974;2022-10-23T04:48:07;95478.06;;;24.10;66.70
61674;BME280;47573;43.832;5.974;2022-10-23T04:53:08;95485.66;;;24.08;67.03
61674;BME280;47573;43.832;5.974;2022-10-23T04:58:08;95496.56;;;24.08;66.92
61674;BME280;47573;43.832;5.974;2022-10-23T05:03:10;95503.19;;;24.12;67.13
61674;BME280;47573;43.832;5.974;2022-10-23T05:08:11;95499.88;;;24.10;66.74
61674;BME280;47573;43.832;5.974;2022-10-23T05:13:11;95494.44;;;24.10;66.69
61674;BME280;47573;43.832;5.974;2022-10-23T05:18:17;95487.31;;;24.09;66.68
61674;BME280;47573;43.832;5.974;2022-10-23T05:23:21;95494.91;;;24.07;66.52
61674;BME280;47573;43.832;5.974;2022-10-23T05:28:24;95499.88;;;24.10;66.74
61674;BME280;47573;43.832;5.974;2022-10-23T05:33:26;95496.56;;;24.08;66.55
61674;BME280;47573;43.832;5.974;2022-10-23T05:38:29;95522.88;;;24.14;66.85
61674;BME280;47573;43.832;5.974;2022-10-23T05:43:31;95531.13;;;24.19;66.28
61674;BME280;47573;43.832;5.974;2022-10-23T05:48:34;95520.88;;;24.09;66.67
61674;BME280;47573;43.832;5.974;2022-10-23T05:53:34;95516.72;;;24.07;66.78
61674;BME280;47573;43.832;5.974;2022-10-23T05:58:35;95513.41;;;24.05;67.18
61674;BME280;47573;43.832;5.974;2022-10-23T06:03:37;95524.91;;;24.07;66.88
61674;BME280;47573;43.832;5.974;2022-10-23T06:08:38;95521.00;;;24.03;66.67
61674;BME280;47573;43.832;5.974;2022-10-23T06:13:40;95524.34;;;24.05;67.00
61674;BME280;47573;43.832;5.974;2022-10-23T06:18:43;95532.72;;;24.03;66.69
61674;BME280;47573;43.832;5.974;2022-10-23T06:23:44;95540.44;;;24.06;66.94
61674;BME280;47573;43.832;5.974;2022-10-23T06:28:45;95543.53;;;24.10;66.73
61674;BME280;47573;43.832;5.974;2022-10-23T06:33:47;95542.81;;;24.03;66.53
61674;BME280;47573;43.832;5.974;2022-10-23T06:38:47;95543.66;;;24.03;66.86
61674;BME280;47573;43.832;5.974;2022-10-23T06:43:48;95551.94;;;24.08;66.39
61674;BME280;47573;43.832;5.974;2022-10-23T06:48:51;95553.28;;;24.06;66.65
61674;BME280;47573;43.832;5.974;2022-10-23T06:53:51;95546.16;;;24.05;66.81
61674;BME280;47573;43.832;5.974;2022-10-23T06:58:52;95558.75;;;24.06;66.85
61674;BME280;47573;43.832;5.974;2022-10-23T07:03:54;95560.38;;;24.07;66.55
61674;BME280;47573;43.832;5.974;2022-10-23T07:08:54;95573.53;;;24.10;66.69
61674;BME280;47573;43.832;5.974;2022-10-23T07:13:55;95589.91;;;24.10;66.60
61674;BME280;47573;43.832;5.974;2022-10-23T07:18:58;95592.81;;;24.20;66.16
61674;BME280;47573;43.832;5.974;2022-10-23T07:23:59;95594.84;;;24.13;66.14
61674;BME280;47573;43.832;5.974;2022-10-23T07:28:59;95597.19;;;24.21;66.28
61674;BME280;47573;43.832;5.974;2022-10-23T07:34:01;95593.44;;;24.10;67.01
61674;BME280;47573;43.832;5.974;2022-10-23T07:39:02;95585.50;;;24.09;66.61
61674;BME280;47573;43.832;5.974;2022-10-23T07:44:03;95586.34;;;24.09;66.97
61674;BME280;47573;43.832;5.974;2022-10-23T07:49:04;95599.25;;;24.14;66.34
61674;BME280;47573;43.832;5.974;2022-10-23T07:54:06;95580.06;;;24.09;66.45
61674;BME280;47573;43.832;5.974;2022-10-23T07:59:09;95581.72;;;24.10;66.57
61674;BME280;47573;43.832;5.974;2022-10-23T08:04:12;95588.34;;;24.14;66.49
61674;BME280;47573;43.832;5.974;2022-10-23T08:09:13;95595.94;;;24.12;66.49
61674;BME280;47573;43.832;5.974;2022-10-23T08:14:13;95599.47;;;24.12;66.53
61674;BME280;47573;43.832;5.974;2022-10-23T08:19:15;95618.25;;;24.09;66.81
61674;BME280;47573;43.832;5.974;2022-10-23T08:24:16;95634.63;;;24.09;66.43
61674;BME280;47573;43.832;5.974;2022-10-23T08:29:16;95634.63;;;24.09;66.39
61674;BME280;47573;43.832;5.974;2022-10-23T08:34:18;95634.63;;;24.09;66.49
61674;BME280;47573;43.832;5.974;2022-10-23T08:39:18;95625.72;;;24.13;66.66
61674;BME280;47573;43.832;5.974;2022-10-23T08:44:23;95615.78;;;24.07;66.42
61674;BME280;47573;43.832;5.974;2022-10-23T08:49:35;95616.44;;;24.14;66.31
61674;BME280;47573;43.832;5.974;2022-10-23T08:54:45;95619.34;;;24.08;66.35
61674;BME280;47573;43.832;5.974;2022-10-23T08:59:52;95632.97;;;24.08;66.66
61674;BME280;47573;43.832;5.974;2022-10-23T09:04:56;95630.34;;;24.13;66.07
61674;BME280;47573;43.832;5.974;2022-10-23T09:10:05;95628.00;;;24.05;66.82
61674;BME280;47573;43.832;5.974;2022-10-23T09:15:17;95621.91;;;24.03;66.78
61674;BME280;47573;43.832;5.974;2022-10-23T09:20:23;95615.44;;;24.04;66.57
61674;BME280;47573;43.832;5.974;2022-10-23T09:25:24;95611.16;;;24.08;66.43
61674;BME280;47573;43.832;5.974;2022-10-23T09:30:31;95613.28;;;24.06;66.64
61674;BME280;47573;43.832;5.974;2022-10-23T09:35:33;95619.91;;;24.10;66.39
61674;BME280;47573;43.832;5.974;2022-10-23T09:40:37;95621.56;;;24.11;66.38
61674;BME280;47573;43.832;5.974;2022-10-23T09:45:39;95615.13;;;24.17;66.09
61674;BME280;47573;43.832;5.974;2022-10-23T09:50:52;95620.94;;;24.20;66.07
61674;BME280;47573;43.832;5.974;2022-10-23T09:55:54;95622.84;;;24.20;65.91
61674;BME280;47573;43.832;5.974;2022-10-23T10:00:56;95617.84;;;24.17;65.88
61674;BME280;47573;43.832;5.974;2022-10-23T10:06:00;95615.50;;;24.20;65.91
61674;BME280;47573;43.832;5.974;2022-10-23T10:11:04;95624.59;;;24.26;65.63
61674;BME280;47573;43.832;5.974;2022-10-23T10:16:10;95629.06;;;24.32;65.38
61674;BME280;47573;43.832;5.974;2022-10-23T10:21:20;95641.66;;;24.33;65.37
61674;BME280;47573;43.832;5.974;2022-10-23T10:26:29;95632.63;;;24.32;65.30
61674;BME280;47573;43.832;5.974;2022-10-23T10:31:45;95631.91;;;24.37;65.63
61674;BME280;47573;43.832;5.974;2022-10-23T10:36:51;95618.66;;;24.45;65.34
61674;BME280;47573;43.832;5.974;2022-10-23T10:42:02;95608.59;;;24.46;65.36
61674;BME280;47573;43.832;5.974;2022-10-23T10:47:09;95602.13;;;24.35;65.73
61674;BME280;47573;43.832;5.974;2022-10-23T10:52:19;95600.47;;;24.34;65.64
61674;BME280;47573;43.832;5.974;2022-10-23T10:57:29;95598.81;;;24.33;65.77
61674;BME280;47573;43.832;5.974;2022-10-23T11:02:34;95594.19;;;24.34;65.59
61674;BME280;47573;43.832;5.974;2022-10-23T11:07:51;95588.13;;;24.32;65.67
61674;BME280;47573;43.832;5.974;2022-10-23T11:12:52;95577.81;;;24.34;65.80
61674;BME280;47573;43.832;5.974;2022-10-23T11:17:56;95564.41;;;24.32;65.73
61674;BME280;47573;43.832;5.974;2022-10-23T11:23:05;95552.19;;;24.35;65.71
61674;BME280;47573;43.832;5.974;2022-10-23T11:28:18;95567.56;;;24.41;65.53
61674;BME280;47573;43.832;5.974;2022-10-23T11:39:06;95567.75;;;24.51;65.03
61674;BME280;47573;43.832;5.974;2022-10-23T11:44:38;95553.00;;;24.52;65.07
61674;BME280;47573;43.832;5.974;2022-10-23T11:49:39;95546.56;;;24.58;64.84
61674;BME280;47573;43.832;5.974;2022-10-23T11:54:41;95533.84;;;24.63;64.36
61674;BME280;47573;43.832;5.974;2022-10-23T11:59:50;95506.84;;;24.67;64.51
61674;BME280;47573;43.832;5.974;2022-10-23T12:04:52;95508.00;;;24.71;63.99
61674;BME280;47573;43.832;5.974;2022-10-23T12:09:57;95500.91;;;24.70;64.15
61674;BME280;47573;43.832;5.974;2022-10-23T12:15:18;95494.34;;;24.71;64.14
61674;BME280;47573;43.832;5.974;2022-10-23T12:20:24;95499.50;;;24.67;64.31
61674;BME280;47573;43.832;5.974;2022-10-23T12:25:35;95492.47;;;24.71;64.00
61674;BME280;47573;43.832;5.974;2022-10-23T12:30:43;95489.47;;;24.73;63.96
61674;BME280;47573;43.832;5.974;2022-10-23T12:36:04;95479.06;;;24.70;64.14
61674;BME280;47573;43.832;5.974;2022-10-23T12:41:13;95469.63;;;24.61;64.57
61674;BME280;47573;43.832;5.974;2022-10-23T12:46:27;95476.25;;;24.65;64.35
61674;BME280;47573;43.832;5.974;2022-10-23T12:51:31;95472.09;;;24.62;64.47
61674;BME280;47573;43.832;5.974;2022-10-23T12:56:35;95464.25;;;24.66;64.31
61674;BME280;47573;43.832;5.974;2022-10-23T13:01:36;95459.28;;;24.63;64.45
61674;BME280;47573;43.832;5.974;2022-10-23T13:06:37;95457.22;;;24.70;64.05
61674;BME280;47573;43.832;5.974;2022-10-23T13:11:40;95447.34;;;24.69;64.55
61674;BME280;47573;43.832;5.974;2022-10-23T13:16:40;95434.53;;;24.69;64.14
61674;BME280;47573;43.832;5.974;2022-10-23T13:21:44;95425.50;;;24.69;64.25
61674;BME280;47573;43.832;5.974;2022-10-23T13:26:46;95422.13;;;24.79;63.92
61674;BME280;47573;43.832;5.974;2022-10-23T13:31:48;95424.84;;;24.79;64.09
61674;BME280;47573;43.832;5.974;2022-10-23T13:36:51;95417.50;;;24.79;63.79
61674;BME280;47573;43.832;5.974;2022-10-23T13:41:53;95412.88;;;24.80;64.10
61674;BME280;47573;43.832;5.974;2022-10-23T13:46:55;95404.66;;;24.80;63.76
61674;BME280;47573;43.832;5.974;2022-10-23T13:51:56;95402.69;;;24.75;63.92
61674;BME280;47573;43.832;5.974;2022-10-23T13:56:57;95396.16;;;24.76;64.12
61674;BME280;47573;43.832;5.974;2022-10-23T14:01:58;95396.41;;;24.74;64.18
61674;BME280;47573;43.832;5.974;2022-10-23T14:06:58;95395.78;;;24.72;64.20
61674;BME280;47573;43.832;5.974;2022-10-23T14:12:00;95387.97;;;24.76;64.08
61674;BME280;47573;43.832;5.974;2022-10-23T14:17:01;95399.47;;;24.78;64.02
61674;BME280;47573;43.832;5.974;2022-10-23T14:22:01;95403.91;;;24.84;63.73
61674;BME280;47573;43.832;5.974;2022-10-23T14:27:03;95404.94;;;24.78;64.03
61674;BME280;47573;43.832;5.974;2022-10-23T14:32:04;95403.34;;;24.82;63.99
61674;BME280;47573;43.832;5.974;2022-10-23T14:37:04;95415.84;;;24.78;64.20
61674;BME280;47573;43.832;5.974;2022-10-23T14:42:06;95428.50;;;24.84;63.46
61674;BME280;47573;43.832;5.974;2022-10-23T14:47:07;95427.94;;;24.82;64.09
61674;BME280;47573;43.832;5.974;2022-10-23T14:52:07;95432.81;;;24.80;64.01
61674;BME280;47573;43.832;5.974;2022-10-23T14:57:09;95420.22;;;24.79;64.33
61674;BME280;47573;43.832;5.974;2022-10-23T15:02:10;95413.13;;;24.78;64.27
61674;BME280;47573;43.832;5.974;2022-10-23T15:07:10;95412.03;;;24.79;64.60
61674;BME280;47573;43.832;5.974;2022-10-23T15:12:12;95405.16;;;24.77;64.56
61674;BME280;47573;43.832;5.974;2022-10-23T15:17:13;95405.72;;;24.79;64.63
61674;BME280;47573;43.832;5.974;2022-10-23T15:22:13;95400.28;;;24.79;64.63
61674;BME280;47573;43.832;5.974;2022-10-23T15:27:15;95409.81;;;24.76;65.00
61674;BME280;47573;43.832;5.974;2022-10-23T15:32:16;95399.34;;;24.73;64.69
61674;BME280;47573;43.832;5.974;2022-10-23T15:37:16;95404.41;;;24.81;64.61
61674;BME280;47573;43.832;5.974;2022-10-23T15:42:18;95399.97;;;24.75;65.25
61674;BME280;47573;43.832;5.974;2022-10-23T15:47:19;95398.78;;;24.71;65.42
61674;BME280;47573;43.832;5.974;2022-10-23T15:52:19;95393.31;;;24.71;65.15
61674;BME280;47573;43.832;5.974;2022-10-23T15:57:21;95397.16;;;24.70;65.06
61674;BME280;47573;43.832;5.974;2022-10-23T16:02:22;95409.38;;;24.67;65.61
61674;BME280;47573;43.832;5.974;2022-10-23T16:07:22;95414.44;;;24.59;65.64
61674;BME280;47573;43.832;5.974;2022-10-23T16:12:24;95409.00;;;24.59;65.99
61674;BME280;47573;43.832;5.974;2022-10-23T16:17:25;95407.09;;;24.59;65.71
61674;BME280;47573;43.832;5.974;2022-10-23T16:22:26;95401.38;;;24.61;65.72
61674;BME280;47573;43.832;5.974;2022-10-23T16:27:27;95399.78;;;24.65;65.84
61674;BME280;47573;43.832;5.974;2022-10-23T16:32:28;95405.75;;;24.62;65.84
61674;BME280;47573;43.832;5.974;2022-10-23T16:37:28;95409.88;;;24.64;65.51
61674;BME280;47573;43.832;5.974;2022-10-23T16:42:30;95409.69;;;24.71;65.74
61674;BME280;47573;43.832;5.974;2022-10-23T16:47:31;95412.38;;;24.66;65.44
61674;BME280;47573;43.832;5.974;2022-10-23T16:52:32;95410.97;;;24.63;65.60
61674;BME280;47573;43.832;5.974;2022-10-23T16:57:35;95417.50;;;24.62;65.96
61674;BME280;47573;43.832;5.974;2022-10-23T17:02:36;95422.78;;;24.69;65.61
61674;BME280;47573;43.832;5.974;2022-10-23T17:07:36;95426.91;;;24.71;65.77
61674;BME280;47573;43.832;5.974;2022-10-23T17:12:38;95436.44;;;24.69;65.57
61674;BME280;47573;43.832;5.974;2022-10-23T17:17:39;95444.06;;;24.67;66.00
61674;BME280;47573;43.832;5.974;2022-10-23T17:22:39;95455.16;;;24.77;65.69
61674;BME280;47573;43.832;5.974;2022-10-23T17:27:41;95461.31;;;24.72;65.67
61674;BME280;47573;43.832;5.974;2022-10-23T17:32:41;95466.00;;;24.72;65.86
61674;BME280;47573;43.832;5.974;2022-10-23T17:37:42;95480.25;;;24.74;66.07
61674;BME280;47573;43.832;5.974;2022-10-23T17:42:44;95494.94;;;24.73;66.10
61674;BME280;47573;43.832;5.974;2022-10-23T17:47:44;95494.59;;;24.69;66.20
61674;BME280;47573;43.832;5.974;2022-10-23T17:52:45;95489.47;;;24.73;65.74
61674;BME280;47573;43.832;5.974;2022-10-23T17:57:47;95492.13;;;24.68;66.04
61674;BME280;47573;43.832;5.974;2022-10-23T18:02:48;95488.88;;;24.71;66.15
61674;BME280;47573;43.832;5.974;2022-10-23T18:07:51;95496.50;;;24.69;66.25
61674;BME280;47573;43.832;5.974;2022-10-23T18:12:54;95492.13;;;24.68;66.31
61674;BME280;47573;43.832;5.974;2022-10-23T18:17:55;95503.06;;;24.68;66.31
61674;BME280;47573;43.832;5.974;2022-10-23T18:22:55;95495.94;;;24.67;66.44
61674;BME280;47573;43.832;5.974;2022-10-23T18:27:57;95503.88;;;24.68;66.09
61674;BME280;47573;43.832;5.974;2022-10-23T18:32:58;95501.91;;;24.64;66.17
61674;BME280;47573;43.832;5.974;2022-10-23T18:37:58;95492.63;;;24.65;66.45
61674;BME280;47573;43.832;5.974;2022-10-23T18:43:00;95487.47;;;24.68;66.47
61674;BME280;47573;43.832;5.974;2022-10-23T18:48:01;95486.69;;;24.68;66.59
61674;BME280;47573;43.832;5.974;2022-10-23T18:53:02;95483.38;;;24.66;66.58
61674;BME280;47573;43.832;5.974;2022-10-23T18:58:05;95481.22;;;24.68;66.53
61674;BME280;47573;43.832;5.974;2022-10-23T19:03:05;95466.47;;;24.69;66.11
61674;BME280;47573;43.832;5.974;2022-10-23T19:08:06;95474.66;;;24.69;66.57
61674;BME280;47573;43.832;5.974;2022-10-23T19:13:08;95475.75;;;24.68;66.40
61674;BME280;47573;43.832;5.974;2022-10-23T19:18:09;95482.38;;;24.72;66.37
61674;BME280;47573;43.832;5.974;2022-10-23T19:23:09;95478.53;;;24.73;66.33
61674;BME280;47573;43.832;5.974;2022-10-23T19:28:11;95473.25;;;24.83;66.31
61674;BME280;47573;43.832;5.974;2022-10-23T19:33:12;95464.75;;;24.80;66.93
61674;BME280;47573;43.832;5.974;2022-10-23T19:38:12;95471.09;;;24.85;66.96
61674;BME280;47573;43.832;5.974;2022-10-23T19:43:14;95458.22;;;24.81;67.39
61674;BME280;47573;43.832;5.974;2022-10-23T19:48:15;95464.00;;;24.84;67.26
61674;BME280;47573;43.832;5.974;2022-10-23T19:53:15;95456.81;;;24.78;67.29
61674;BME280;47573;43.832;5.974;2022-10-23T19:58:17;95465.81;;;24.79;67.51
61674;BME280;47573;43.832;5.974;2022-10-23T20:03:17;95466.66;;;24.79;67.46
61674;BME280;47573;43.832;5.974;2022-10-23T20:08:18;95472.94;;;24.80;67.26
61674;BME280;47573;43.832;5.974;2022-10-23T20:13:20;95457.13;;;24.82;67.54
61674;BME280;47573;43.832;5.974;2022-10-23T20:18:20;95456.56;;;24.80;67.66
61674;BME280;47573;43.832;5.974;2022-10-23T20:23:21;95459.03;;;24.81;67.58
61674;BME280;47573;43.832;5.974;2022-10-23T20:28:23;95464.19;;;24.78;67.40
61674;BME280;47573;43.832;5.974;2022-10-23T20:33:23;95462.03;;;24.80;67.70
61674;BME280;47573;43.832;5.974;2022-10-23T20:38:24;95438.19;;;24.75;67.73
61674;BME280;47573;43.832;5.974;2022-10-23T20:43:26;95448.63;;;24.78;67.89
61674;BME280;47573;43.832;5.974;2022-10-23T20:48:26;95437.69;;;24.78;67.30
61674;BME280;47573;43.832;5.974;2022-10-23T20:53:27;95442.81;;;24.74;67.77
61674;BME280;47573;43.832;5.974;2022-10-23T20:58:28;95442.47;;;24.71;67.63
61674;BME280;47573;43.832;5.974;2022-10-23T21:03:29;95449.59;;;24.72;67.54
61674;BME280;47573;43.832;5.974;2022-10-23T21:08:30;95451.75;;;24.70;67.86
61674;BME280;47573;43.832;5.974;2022-10-23T21:13:32;95457.22;;;24.70;67.91
61674;BME280;47573;43.832;5.974;2022-10-23T21:18:32;95459.38;;;24.68;67.69
61674;BME280;47573;43.832;5.974;2022-10-23T21:23:33;95454.97;;;24.67;67.70
61674;BME280;47573;43.832;5.974;2022-10-23T21:28:35;95464.84;;;24.68;67.89
61674;BME280;47573;43.832;5.974;2022-10-23T21:33:35;95475.75;;;24.68;67.59
61674;BME280;47573;43.832;5.974;2022-10-23T21:38:36;95473.59;;;24.70;67.60
61674;BME280;47573;43.832;5.974;2022-10-23T21:43:38;95467.56;;;24.68;67.86
61674;BME280;47573;43.832;5.974;2022-10-23T21:48:38;95464.84;;;24.68;67.80
61674;BME280;47573;43.832;5.974;2022-10-23T21:53:39;95471.69;;;24.70;67.74
61674;BME280;47573;43.832;5.974;2022-10-23T21:58:41;95462.69;;;24.70;67.56
61674;BME280;47573;43.832;5.974;2022-10-23T22:03:41;95451.97;;;24.68;67.78
61674;BME280;47573;43.832;5.974;2022-10-23T22:08:42;95450.59;;;24.66;67.99
61674;BME280;47573;43.832;5.974;2022-10-23T22:13:44;95426.59;;;24.68;67.43
61674;BME280;47573;43.832;5.974;2022-10-23T22:18:45;95426.59;;;24.68;67.39
61674;BME280;47573;43.832;5.974;2022-10-23T22:23:48;95420.00;;;24.64;67.90
61674;BME280;47573;43.832;5.974;2022-10-23T22:28:53;95428.09;;;24.59;67.92
61674;BME280;47573;43.832;5.974;2022-10-23T22:33:54;95434.97;;;24.61;67.76
61674;BME280;47573;43.832;5.974;2022-10-23T22:38:55;95446.13;;;24.60;67.75
61674;BME280;47573;43.832;5.974;2022-10-23T22:43:58;95462.31;;;24.66;67.50
61674;BME280;47573;43.832;5.974;2022-10-23T22:48:58;95461.75;;;24.81;67.29
61674;BME280;47573;43.832;5.974;2022-10-23T22:53:59;95465.16;;;24.88;67.13
61674;BME280;47573;43.832;5.974;2022-10-23T22:59:01;95474.34;;;24.82;66.95
61674;BME280;47573;43.832;5.974;2022-10-23T23:04:02;95455.72;;;24.79;67.24
61674;BME280;47573;43.832;5.974;2022-10-23T23:09:04;95465.00;;;24.78;67.15
61674;BME280;47573;43.832;5.974;2022-10-23T23:14:05;95468.81;;;24.77;67.28
61674;BME280;47573;43.832;5.974;2022-10-23T23:19:06;95474.25;;;24.77;67.20
61674;BME280;47573;43.832;5.974;2022-10-23T23:24:06;95468.81;;;24.77;67.30
61674;BME280;47573;43.832;5.974;2022-10-23T23:29:08;95455.53;;;24.69;66.93
61674;BME280;47573;43.832;5.974;2022-10-23T23:34:09;95450.91;;;24.69;67.07
61674;BME280;47573;43.832;5.974;2022-10-23T23:39:09;95447.63;;;24.67;67.29
61674;BME280;47573;43.832;5.974;2022-10-23T23:44:12;95443.00;;;24.68;67.24
61674;BME280;47573;43.832;5.974;2022-10-23T23:49:12;95441.31;;;24.67;67.23
61674;BME280;47573;43.832;5.974;2022-10-23T23:54:13;95433.38;;;24.65;67.01
61674;BME280;47573;43.832;5.974;2022-10-23T23:59:15;95429.81;;;24.65;66.90
